createdAt,value
2022-09-25T00:00:38.982Z,65.60
2022-09-25T00:01:40.659Z,65.37
2022-09-25T00:02:42.394Z,64.96
2022-09-25T00:03:44.107Z,64.72
2022-09-25T00:04:45.667Z,64.86
2022-09-25T00:05:47.717Z,63.94
2022-09-25T00:06:49.339Z,64.06
2022-09-25T00:07:51.777Z,64.53
2022-09-25T00:08:54.249Z,64.52
2022-09-25T00:09:55.779Z,64.12
2022-09-25T00:10:57.374Z,64.41
2022-09-25T00:11:58.988Z,64.32
2022-09-25T00:13:00.933Z,63.77
2022-09-25T00:14:02.509Z,63.56
2022-09-25T00:15:05.622Z,63.63
2022-09-25T00:16:10.868Z,63.96
2022-09-25T00:17:12.487Z,63.74
2022-09-25T00:18:14.587Z,63.44
2022-09-25T00:19:40.914Z,63.55
2022-09-25T00:20:43.357Z,63.89
2022-09-25T00:21:45.318Z,64.15
2022-09-25T00:22:47.571Z,64.21
2022-09-25T00:23:49.116Z,64.20
2022-09-25T00:24:50.746Z,64.72
2022-09-25T00:25:56.216Z,65.13
2022-09-25T00:27:00.038Z,64.70
2022-09-25T00:28:01.838Z,64.43
2022-09-25T00:29:04.913Z,63.94
2022-09-25T00:30:07.518Z,64.54
2022-09-25T00:31:10.834Z,64.33
2022-09-25T00:32:12.483Z,64.76
2022-09-25T00:33:14.022Z,63.82
2022-09-25T00:34:15.574Z,63.85
2022-09-25T00:35:17.189Z,63.90
2022-09-25T00:36:19.292Z,64.36
2022-09-25T00:37:21.111Z,64.58
2022-09-25T00:38:22.644Z,65.32
2022-09-25T00:39:24.423Z,65.59
2022-09-25T00:40:26.088Z,66.32
2022-09-25T00:41:32.042Z,66.10
2022-09-25T00:42:33.735Z,66.20
2022-09-25T00:43:41.275Z,65.77
2022-09-25T00:44:56.847Z,65.63
2022-09-25T00:45:59.080Z,65.91
2022-09-25T00:47:01.034Z,64.98
2022-09-25T00:48:07.318Z,64.74
2022-09-25T00:49:12.458Z,65.29
2022-09-25T00:50:22.871Z,65.01
2022-09-25T00:51:30.437Z,65.51
2022-09-25T00:52:32.062Z,65.64
2022-09-25T00:53:38.578Z,65.63
2022-09-25T00:54:49.449Z,65.10
2022-09-25T00:55:51.983Z,65.06
2022-09-25T00:56:56.697Z,64.20
2022-09-25T00:58:00.545Z,65.20
2022-09-25T00:59:02.503Z,64.87
2022-09-25T01:00:08.514Z,64.33
2022-09-25T01:01:10.395Z,64.35
2022-09-25T01:02:20.537Z,64.55
2022-09-25T01:03:22.886Z,64.60
2022-09-25T01:04:26.413Z,64.31
2022-09-25T01:05:32.331Z,64.03
2022-09-25T01:06:35.793Z,64.38
2022-09-25T01:07:40.744Z,64.54
2022-09-25T01:08:45.265Z,65.07
2022-09-25T01:09:46.889Z,64.90
2022-09-25T01:10:48.483Z,65.13
2022-09-25T01:11:49.989Z,64.94
2022-09-25T01:12:52.944Z,64.83
2022-09-25T01:13:56.869Z,64.51
2022-09-25T01:14:58.405Z,65.23
2022-09-25T01:15:59.880Z,64.33
2022-09-25T01:17:24.741Z,64.28
2022-09-25T01:18:35.317Z,64.31
2022-09-25T01:19:39.848Z,63.94
2022-09-25T01:21:03.928Z,64.38
2022-09-25T01:22:18.953Z,65.03
2022-09-25T01:23:55.761Z,66.58
2022-09-25T01:25:24.234Z,66.66
2022-09-25T01:26:50.097Z,67.60
2022-09-25T01:28:06.634Z,67.18
2022-09-25T01:29:37.473Z,67.71
2022-09-25T01:30:44.655Z,67.96
2022-09-25T01:32:18.494Z,68.10
2022-09-25T01:33:27.420Z,67.40
2022-09-25T01:34:40.681Z,67.47
2022-09-25T01:35:48.199Z,67.24
2022-09-25T01:37:00.043Z,66.75
2022-09-25T01:38:34.952Z,66.43
2022-09-25T01:39:41.331Z,65.89
2022-09-25T01:40:56.619Z,66.01
2022-09-25T01:42:14.496Z,65.54
2022-09-25T01:43:20.851Z,65.50
2022-09-25T01:44:36.351Z,65.76
2022-09-25T01:45:47.566Z,66.08
2022-09-25T01:46:52.742Z,65.52
2022-09-25T01:47:57.407Z,66.61
2022-09-25T01:49:08.624Z,67.21
2022-09-25T01:50:19.185Z,67.15
2022-09-25T01:51:37.942Z,66.88
2022-09-25T01:52:47.895Z,67.63
2022-09-25T01:53:53.925Z,68.53
2022-09-25T01:55:02.515Z,70.16
2022-09-25T01:56:13.539Z,70.13
2022-09-25T01:57:31.865Z,70.90
2022-09-25T01:58:42.052Z,70.74
2022-09-25T02:00:09.942Z,71.52
2022-09-25T02:01:18.505Z,71.73
2022-09-25T02:02:26.882Z,71.35
2022-09-25T02:03:36.780Z,71.66
2022-09-25T02:04:42.985Z,71.17
2022-09-25T02:05:49.549Z,71.75
2022-09-25T02:06:53.872Z,71.52
2022-09-25T02:08:02.170Z,70.78
2022-09-25T02:09:11.231Z,70.87
2022-09-25T02:10:16.881Z,70.95
2022-09-25T02:11:18.402Z,71.01
2022-09-25T02:12:34.306Z,71.71
2022-09-25T02:13:43.301Z,70.84
2022-09-25T02:14:48.635Z,71.75
2022-09-25T02:16:26.198Z,70.66
2022-09-25T02:18:15.458Z,71.04
2022-09-25T02:19:36.579Z,70.32
2022-09-25T02:20:42.470Z,70.30
2022-09-25T02:22:04.840Z,70.68
2022-09-25T02:23:25.270Z,70.86
2022-09-25T02:24:37.258Z,70.26
2022-09-25T02:25:44.691Z,69.65
2022-09-25T02:26:46.851Z,69.65
2022-09-25T02:27:48.379Z,69.97
2022-09-25T02:28:51.608Z,70.14
2022-09-25T02:29:53.492Z,69.14
2022-09-25T02:30:59.239Z,68.56
2022-09-25T02:32:10.707Z,68.47
2022-09-25T02:33:12.306Z,67.61
2022-09-25T02:34:15.445Z,68.59
2022-09-25T02:35:17.320Z,68.81
2022-09-25T02:36:21.854Z,68.11
2022-09-25T02:37:24.106Z,68.59
2022-09-25T02:38:25.630Z,69.33
2022-09-25T02:39:29.963Z,68.46
2022-09-25T02:40:48.733Z,68.55
2022-09-25T02:42:05.187Z,68.60
2022-09-25T02:43:30.863Z,68.98
2022-09-25T02:44:47.745Z,68.94
2022-09-25T02:46:19.267Z,68.73
2022-09-25T02:47:34.733Z,68.29
2022-09-25T02:49:02.198Z,68.59
2022-09-25T02:50:15.921Z,69.08
2022-09-25T02:51:24.746Z,69.32
2022-09-25T02:52:38.809Z,71.20
2022-09-25T02:53:49.782Z,71.54
2022-09-25T02:55:04.209Z,72.78
2022-09-25T02:56:39.177Z,72.40
2022-09-25T02:57:58.976Z,72.13
2022-09-25T02:59:08.929Z,71.03
2022-09-25T03:00:11.537Z,71.26
2022-09-25T03:01:16.632Z,70.27
2022-09-25T03:02:19.892Z,70.68
2022-09-25T03:03:23.937Z,71.22
2022-09-25T03:04:27.681Z,70.40
2022-09-25T03:05:30.810Z,71.06
2022-09-25T03:06:32.665Z,69.81
2022-09-25T03:07:54.391Z,70.31
2022-09-25T03:08:58.857Z,69.99
2022-09-25T03:10:00.654Z,70.90
2022-09-25T03:11:03.925Z,70.87
2022-09-25T03:12:05.558Z,70.70
2022-09-25T03:13:17.491Z,69.55
2022-09-25T03:14:19.125Z,69.77
2022-09-25T03:15:23.838Z,70.31
2022-09-25T03:16:40.790Z,69.75
2022-09-25T03:17:43.606Z,70.22
2022-09-25T03:18:46.336Z,69.85
2022-09-25T03:19:47.874Z,69.08
2022-09-25T03:20:49.608Z,69.59
2022-09-25T03:21:51.170Z,69.43
2022-09-25T03:22:52.697Z,69.40
2022-09-25T03:23:56.966Z,68.63
2022-09-25T03:24:58.487Z,69.13
2022-09-25T03:26:00.089Z,68.90
2022-09-25T03:27:01.626Z,70.26
2022-09-25T03:28:03.645Z,70.19
2022-09-25T03:29:06.161Z,70.67
2022-09-25T03:30:11.157Z,71.96
2022-09-25T03:31:12.798Z,73.13
2022-09-25T03:32:15.085Z,72.80
2022-09-25T03:33:17.672Z,72.95
2022-09-25T03:34:20.101Z,73.00
2022-09-25T03:35:21.681Z,72.75
2022-09-25T03:36:25.723Z,72.85
2022-09-25T03:37:27.294Z,72.89
2022-09-25T03:38:28.916Z,72.76
2022-09-25T03:39:30.460Z,72.35
2022-09-25T03:40:32.730Z,71.67
2022-09-25T03:41:35.406Z,72.05
2022-09-25T03:42:37.031Z,70.64
2022-09-25T03:43:40.846Z,71.07
2022-09-25T03:44:43.028Z,71.19
2022-09-25T03:45:44.640Z,70.61
2022-09-25T03:46:46.282Z,70.06
2022-09-25T03:47:47.824Z,70.30
2022-09-25T03:48:49.772Z,69.65
2022-09-25T03:49:51.317Z,69.09
2022-09-25T03:50:53.332Z,69.89
2022-09-25T03:51:54.845Z,69.02
2022-09-25T03:52:57.154Z,69.97
2022-09-25T03:53:59.105Z,70.00
2022-09-25T03:55:00.698Z,70.05
2022-09-25T03:56:08.137Z,69.82
2022-09-25T03:57:12.391Z,69.42
2022-09-25T03:58:14.864Z,68.59
2022-09-25T03:59:16.969Z,68.57
2022-09-25T04:00:18.509Z,68.22
2022-09-25T04:01:21.942Z,69.53
2022-09-25T04:02:23.677Z,70.25
2022-09-25T04:03:29.151Z,70.59
2022-09-25T04:04:30.674Z,70.48
2022-09-25T04:05:34.842Z,70.41
2022-09-25T04:06:36.420Z,71.03
2022-09-25T04:07:38.305Z,70.79
2022-09-25T04:08:39.847Z,71.18
2022-09-25T04:09:41.386Z,71.92
2022-09-25T04:10:42.962Z,70.92
2022-09-25T04:11:45.140Z,70.88
2022-09-25T04:12:46.678Z,70.26
2022-09-25T04:13:48.289Z,70.28
2022-09-25T04:14:49.785Z,70.95
2022-09-25T04:15:51.753Z,70.38
2022-09-25T04:16:53.434Z,70.22
2022-09-25T04:17:58.057Z,70.49
2022-09-25T04:19:01.670Z,71.15
2022-09-25T04:20:03.578Z,72.89
2022-09-25T04:21:08.507Z,74.59
2022-09-25T04:22:10.133Z,74.55
2022-09-25T04:23:11.651Z,74.64
2022-09-25T04:24:31.710Z,74.19
2022-09-25T04:25:33.576Z,74.51
2022-09-25T04:26:35.551Z,74.07
2022-09-25T04:27:37.179Z,74.55
2022-09-25T04:28:38.736Z,73.15
2022-09-25T04:29:41.022Z,72.44
2022-09-25T04:30:42.542Z,72.56
2022-09-25T04:31:44.157Z,72.27
2022-09-25T04:33:04.371Z,72.12
2022-09-25T04:34:05.876Z,72.34
2022-09-25T04:35:08.081Z,71.08
2022-09-25T04:36:09.650Z,70.95
2022-09-25T04:37:12.099Z,70.63
2022-09-25T04:38:13.781Z,71.14
2022-09-25T04:39:20.081Z,71.67
2022-09-25T04:40:21.719Z,71.03
2022-09-25T04:41:23.279Z,70.96
2022-09-25T04:42:25.807Z,70.60
2022-09-25T04:43:34.368Z,71.05
2022-09-25T04:44:35.975Z,71.04
2022-09-25T04:45:37.775Z,70.65
2022-09-25T04:46:39.320Z,70.23
2022-09-25T04:47:40.946Z,69.90
2022-09-25T04:48:45.929Z,69.86
2022-09-25T04:49:47.701Z,70.24
2022-09-25T04:50:51.121Z,70.38
2022-09-25T04:51:52.705Z,70.72
2022-09-25T04:52:56.389Z,70.25
2022-09-25T04:53:58.033Z,70.68
2022-09-25T04:55:00.748Z,71.12
2022-09-25T04:56:05.459Z,70.54
2022-09-25T04:57:07.027Z,71.40
2022-09-25T04:58:11.137Z,72.54
2022-09-25T04:59:12.671Z,73.08
2022-09-25T05:00:18.691Z,74.27
2022-09-25T05:01:20.916Z,74.77
2022-09-25T05:02:28.061Z,75.40
2022-09-25T05:03:30.143Z,75.33
2022-09-25T05:04:32.102Z,75.73
2022-09-25T05:05:33.680Z,75.69
2022-09-25T05:06:35.173Z,75.43
2022-09-25T05:07:36.758Z,75.42
2022-09-25T05:08:38.273Z,75.64
2022-09-25T05:09:40.210Z,76.09
2022-09-25T05:10:44.268Z,75.72
2022-09-25T05:11:48.964Z,76.54
2022-09-25T05:12:56.353Z,77.01
2022-09-25T05:13:58.169Z,76.83
2022-09-25T05:14:59.814Z,76.18
2022-09-25T05:16:01.673Z,76.75
2022-09-25T05:17:03.417Z,76.67
2022-09-25T05:18:18.158Z,76.58
2022-09-25T05:19:19.739Z,75.18
2022-09-25T05:20:21.310Z,75.43
2022-09-25T05:21:22.914Z,74.59
2022-09-25T05:22:24.432Z,74.60
2022-09-25T05:23:26.052Z,74.67
2022-09-25T05:24:27.718Z,73.44
2022-09-25T05:25:29.542Z,74.05
2022-09-25T05:26:34.378Z,72.46
2022-09-25T05:27:35.964Z,72.23
2022-09-25T05:28:37.502Z,71.46
2022-09-25T05:29:40.201Z,71.38
2022-09-25T05:30:43.605Z,70.91
2022-09-25T05:31:48.729Z,70.42
2022-09-25T05:32:51.486Z,70.47
2022-09-25T05:33:54.023Z,69.20
2022-09-25T05:34:55.541Z,69.13
2022-09-25T05:36:01.854Z,68.95
2022-09-25T05:37:03.741Z,68.49
2022-09-25T05:38:06.751Z,67.35
2022-09-25T05:39:14.469Z,67.43
2022-09-25T05:40:18.596Z,66.83
2022-09-25T05:41:20.616Z,67.00
2022-09-25T05:42:23.104Z,66.63
2022-09-25T05:43:25.461Z,66.38
2022-09-25T05:44:28.477Z,66.17
2022-09-25T05:45:30.162Z,65.63
2022-09-25T05:46:31.866Z,64.61
2022-09-25T05:47:33.441Z,65.75
2022-09-25T05:48:35.369Z,65.88
2022-09-25T05:49:37.059Z,64.57
2022-09-25T05:50:38.640Z,63.70
2022-09-25T05:51:40.181Z,63.11
2022-09-25T05:52:41.701Z,64.25
2022-09-25T05:53:43.280Z,64.39
2022-09-25T05:54:44.842Z,64.57
2022-09-25T05:55:53.774Z,64.40
2022-09-25T05:56:55.309Z,64.08
2022-09-25T05:58:03.870Z,64.57
2022-09-25T05:59:05.477Z,63.56
2022-09-25T06:00:13.617Z,62.46
2022-09-25T06:01:15.221Z,61.57
2022-09-25T06:02:17.127Z,60.08
2022-09-25T06:03:20.521Z,60.45
2022-09-25T06:04:22.137Z,60.19
2022-09-25T06:05:23.656Z,60.00
2022-09-25T06:06:27.455Z,59.46
2022-09-25T06:07:29.317Z,59.43
2022-09-25T06:08:31.439Z,59.96
2022-09-25T06:09:33.069Z,59.84
2022-09-25T06:10:35.487Z,59.57
2022-09-25T06:11:36.981Z,59.22
2022-09-25T06:12:38.524Z,58.40
2022-09-25T06:13:40.942Z,59.77
2022-09-25T06:14:42.575Z,57.96
2022-09-25T06:15:44.131Z,58.11
2022-09-25T06:16:49.916Z,56.72
2022-09-25T06:17:51.734Z,56.57
2022-09-25T06:18:53.289Z,56.84
2022-09-25T06:19:54.825Z,55.06
2022-09-25T06:21:04.983Z,56.23
2022-09-25T06:22:06.582Z,57.38
2022-09-25T06:23:08.155Z,57.70
2022-09-25T06:24:10.815Z,57.99
2022-09-25T06:25:12.357Z,57.86
2022-09-25T06:26:14.380Z,57.61
2022-09-25T06:27:15.903Z,56.98
2022-09-25T06:28:17.569Z,56.03
2022-09-25T06:29:19.156Z,56.20
2022-09-25T06:30:22.143Z,56.21
2022-09-25T06:31:23.745Z,55.66
2022-09-25T06:32:25.315Z,55.40
2022-09-25T06:33:26.859Z,55.95
2022-09-25T06:34:28.548Z,55.07
2022-09-25T06:35:30.309Z,54.91
2022-09-25T06:36:32.309Z,54.25
2022-09-25T06:37:33.877Z,53.55
2022-09-25T06:38:35.564Z,52.75
2022-09-25T06:39:37.083Z,52.42
2022-09-25T06:40:41.456Z,52.31
2022-09-25T06:41:44.057Z,51.68
2022-09-25T06:42:46.252Z,50.47
2022-09-25T06:43:52.090Z,51.54
2022-09-25T06:44:53.640Z,51.21
2022-09-25T06:45:55.308Z,50.62
2022-09-25T06:46:56.874Z,50.42
2022-09-25T06:48:06.559Z,50.12
2022-09-25T06:49:08.154Z,50.37
2022-09-25T06:50:11.894Z,50.66
2022-09-25T06:51:13.475Z,56.65
2022-09-25T06:52:15.098Z,50.43
2022-09-25T06:53:18.203Z,49.45
2022-09-25T06:54:19.736Z,49.35
2022-09-25T06:55:21.274Z,49.92
2022-09-25T06:56:23.034Z,49.70
2022-09-25T06:57:24.549Z,49.30
2022-09-25T06:58:30.340Z,49.71
2022-09-25T06:59:32.533Z,49.37
2022-09-25T07:00:34.684Z,48.80
2022-09-25T07:01:36.232Z,48.72
2022-09-25T07:02:56.555Z,48.50
2022-09-25T07:03:58.124Z,48.92
2022-09-25T07:05:00.606Z,48.40
2022-09-25T07:06:04.279Z,47.67
2022-09-25T07:07:05.868Z,48.61
2022-09-25T07:08:07.504Z,47.72
2022-09-25T07:09:09.104Z,47.70
2022-09-25T07:10:11.314Z,47.98
2022-09-25T07:11:15.229Z,47.17
2022-09-25T07:12:18.515Z,47.49
2022-09-25T07:13:24.883Z,48.02
2022-09-25T07:14:26.378Z,46.92
2022-09-25T07:15:27.943Z,47.14
2022-09-25T07:16:30.638Z,46.82
2022-09-25T07:17:32.306Z,47.46
2022-09-25T07:18:34.330Z,48.23
2022-09-25T07:19:35.861Z,48.94
2022-09-25T07:20:37.827Z,47.97
2022-09-25T07:21:39.368Z,47.74
2022-09-25T07:22:42.648Z,47.16
2022-09-25T07:23:44.527Z,46.89
2022-09-25T07:24:46.161Z,46.38
2022-09-25T07:25:48.406Z,48.29
2022-09-25T07:26:49.976Z,45.72
2022-09-25T07:27:51.621Z,45.56
2022-09-25T07:29:01.262Z,44.94
2022-09-25T07:30:03.235Z,45.58
2022-09-25T07:31:19.521Z,45.41
2022-09-25T07:32:21.123Z,45.50
2022-09-25T07:33:25.110Z,45.16
2022-09-25T07:34:26.895Z,45.41
2022-09-25T07:35:28.500Z,45.72
2022-09-25T07:36:30.124Z,46.41
2022-09-25T07:37:31.703Z,46.79
2022-09-25T07:38:34.461Z,46.90
2022-09-25T07:39:36.107Z,47.39
2022-09-25T07:40:37.702Z,46.78
2022-09-25T07:41:39.324Z,46.57
2022-09-25T07:42:41.970Z,46.22
2022-09-25T07:43:43.713Z,45.91
2022-09-25T07:44:48.362Z,46.17
2022-09-25T07:45:53.673Z,46.55
2022-09-25T07:46:55.333Z,46.57
2022-09-25T07:47:58.173Z,45.64
2022-09-25T07:49:02.884Z,45.99
2022-09-25T07:50:04.747Z,46.01
2022-09-25T07:51:08.971Z,46.58
2022-09-25T07:52:10.519Z,46.32
2022-09-25T07:53:12.223Z,46.19
2022-09-25T07:54:13.868Z,45.60
2022-09-25T07:55:15.719Z,45.44
2022-09-25T07:56:17.729Z,46.39
2022-09-25T07:57:20.656Z,46.83
2022-09-25T07:58:23.824Z,47.78
2022-09-25T07:59:25.459Z,48.04
2022-09-25T08:00:27.025Z,47.54
2022-09-25T08:01:28.717Z,47.01
2022-09-25T08:02:35.194Z,47.59
2022-09-25T08:03:36.799Z,48.07
2022-09-25T08:04:38.394Z,47.63
2022-09-25T08:05:39.907Z,47.33
2022-09-25T08:06:41.522Z,47.55
2022-09-25T08:07:43.057Z,47.26
2022-09-25T08:08:44.747Z,47.23
2022-09-25T08:09:46.282Z,48.11
2022-09-25T08:10:48.354Z,47.39
2022-09-25T08:11:50.102Z,46.63
2022-09-25T08:12:51.766Z,46.94
2022-09-25T08:13:53.404Z,46.73
2022-09-25T08:14:54.996Z,46.75
2022-09-25T08:15:56.689Z,46.51
2022-09-25T08:16:58.342Z,46.57
2022-09-25T08:17:59.861Z,45.87
2022-09-25T08:19:01.448Z,45.91
2022-09-25T08:20:03.744Z,45.32
2022-09-25T08:21:05.541Z,45.89
2022-09-25T08:22:07.102Z,45.13
2022-09-25T08:23:08.686Z,45.52
2022-09-25T08:24:10.892Z,45.91
2022-09-25T08:25:13.065Z,44.70
2022-09-25T08:26:17.806Z,45.66
2022-09-25T08:27:19.525Z,45.31
2022-09-25T08:28:21.138Z,45.70
2022-09-25T08:29:23.108Z,45.83
2022-09-25T08:30:24.998Z,45.74
2022-09-25T08:31:27.004Z,45.92
2022-09-25T08:32:28.785Z,45.44
2022-09-25T08:33:31.447Z,45.21
2022-09-25T08:34:41.641Z,45.10
2022-09-25T08:35:43.687Z,45.66
2022-09-25T08:36:47.801Z,45.67
2022-09-25T08:37:49.379Z,44.74
2022-09-25T08:38:56.164Z,44.91
2022-09-25T08:39:59.362Z,44.46
2022-09-25T08:41:11.562Z,44.80
2022-09-25T08:42:27.623Z,44.79
2022-09-25T08:43:32.051Z,44.80
2022-09-25T08:44:52.566Z,44.45
2022-09-25T08:46:29.571Z,44.97
2022-09-25T08:47:49.980Z,45.17
2022-09-25T08:49:02.868Z,44.82
2022-09-25T08:50:10.360Z,44.38
2022-09-25T08:51:12.022Z,44.36
2022-09-25T08:52:18.684Z,44.43
2022-09-25T08:53:25.202Z,44.29
2022-09-25T08:54:29.404Z,44.82
2022-09-25T08:55:53.851Z,45.63
2022-09-25T08:57:04.413Z,45.09
2022-09-25T08:58:06.647Z,45.08
2022-09-25T08:59:24.039Z,44.92
2022-09-25T09:00:25.593Z,45.63
2022-09-25T09:01:30.222Z,45.37
2022-09-25T09:02:40.622Z,45.99
2022-09-25T09:03:50.198Z,45.81
2022-09-25T09:04:55.667Z,46.07
2022-09-25T09:06:02.720Z,46.48
2022-09-25T09:07:27.818Z,45.48
2022-09-25T09:08:33.616Z,45.25
2022-09-25T09:09:40.887Z,45.73
2022-09-25T09:10:52.121Z,46.00
2022-09-25T09:12:03.658Z,45.38
2022-09-25T09:13:37.293Z,45.62
2022-09-25T09:14:47.144Z,46.79
2022-09-25T09:16:02.721Z,46.85
2022-09-25T09:17:13.141Z,47.53
2022-09-25T09:18:26.936Z,46.31
2022-09-25T09:19:28.969Z,46.23
2022-09-25T09:20:43.267Z,45.81
2022-09-25T09:22:06.173Z,45.41
2022-09-25T09:23:18.071Z,44.50
2022-09-25T09:24:41.661Z,44.13
2022-09-25T09:25:58.342Z,45.02
2022-09-25T09:27:04.191Z,44.46
2022-09-25T09:28:50.016Z,44.49
2022-09-25T09:30:05.662Z,43.96
2022-09-25T09:31:26.036Z,43.34
2022-09-25T09:32:56.245Z,43.12
2022-09-25T09:34:12.345Z,43.08
2022-09-25T09:35:38.956Z,43.94
2022-09-25T09:36:52.993Z,42.24
2022-09-25T09:38:16.053Z,42.17
2022-09-25T09:39:23.681Z,42.42
2022-09-25T09:40:31.061Z,42.31
2022-09-25T09:41:50.280Z,41.46
2022-09-25T09:43:27.720Z,40.97
2022-09-25T09:44:54.542Z,41.03
2022-09-25T09:46:04.261Z,41.47
2022-09-25T09:47:39.848Z,40.72
2022-09-25T09:49:16.802Z,41.38
2022-09-25T09:50:49.902Z,40.24
2022-09-25T09:52:03.857Z,39.75
2022-09-25T09:53:19.327Z,40.03
2022-09-25T09:54:32.053Z,39.83
2022-09-25T09:55:47.089Z,39.82
2022-09-25T09:56:51.711Z,40.96
2022-09-25T09:57:57.465Z,38.71
2022-09-25T09:59:04.064Z,40.21
2022-09-25T10:00:13.439Z,39.57
2022-09-25T10:01:37.017Z,39.89
2022-09-25T10:02:44.392Z,40.18
2022-09-25T10:03:49.215Z,39.54
2022-09-25T10:04:53.944Z,40.38
2022-09-25T10:05:59.673Z,39.98
2022-09-25T10:07:16.730Z,40.12
2022-09-25T10:08:18.335Z,40.67
2022-09-25T10:09:19.892Z,40.58
2022-09-25T10:10:28.230Z,40.84
2022-09-25T10:11:32.273Z,40.16
2022-09-25T10:12:37.594Z,40.73
2022-09-25T10:13:45.901Z,40.63
2022-09-25T10:14:48.391Z,39.96
2022-09-25T10:16:04.789Z,39.50
2022-09-25T10:17:11.437Z,39.21
2022-09-25T10:18:15.268Z,39.62
2022-09-25T10:19:24.338Z,38.70
2022-09-25T10:20:31.044Z,38.85
2022-09-25T10:21:41.052Z,38.35
2022-09-25T10:22:46.149Z,38.71
2022-09-25T10:23:52.663Z,38.30
2022-09-25T10:24:55.584Z,38.48
2022-09-25T10:25:57.107Z,38.58
2022-09-25T10:27:21.414Z,38.03
2022-09-25T10:28:36.901Z,38.10
2022-09-25T10:29:38.472Z,38.27
2022-09-25T10:30:46.538Z,38.17
2022-09-25T10:31:56.284Z,38.22
2022-09-25T10:33:11.637Z,38.20
2022-09-25T10:34:13.230Z,37.68
2022-09-25T10:35:17.946Z,37.90
2022-09-25T10:36:36.023Z,38.02
2022-09-25T10:37:37.681Z,38.17
2022-09-25T10:38:53.493Z,37.66
2022-09-25T10:40:08.630Z,37.27
2022-09-25T10:41:20.061Z,37.12
2022-09-25T10:42:41.618Z,36.99
2022-09-25T10:44:01.182Z,37.46
2022-09-25T10:45:22.018Z,37.16
2022-09-25T10:46:46.525Z,37.28
2022-09-25T10:48:09.312Z,36.72
2022-09-25T10:49:43.226Z,36.64
2022-09-25T10:50:45.314Z,36.90
2022-09-25T10:52:08.067Z,36.04
2022-09-25T10:53:30.412Z,36.54
2022-09-25T10:54:33.645Z,36.02
2022-09-25T10:55:44.067Z,36.17
2022-09-25T10:56:45.617Z,35.78
2022-09-25T10:57:48.170Z,35.41
2022-09-25T10:58:59.750Z,34.06
2022-09-25T11:00:03.327Z,35.25
2022-09-25T11:01:07.351Z,35.10
2022-09-25T11:02:40.392Z,34.46
2022-09-25T11:03:49.174Z,34.92
2022-09-25T11:04:52.835Z,35.24
2022-09-25T11:06:05.431Z,35.73
2022-09-25T11:07:17.138Z,35.60
2022-09-25T11:08:23.791Z,35.86
2022-09-25T11:09:28.103Z,36.08
2022-09-25T11:10:45.255Z,35.30
2022-09-25T11:11:49.454Z,35.69
2022-09-25T11:12:52.539Z,35.88
2022-09-25T11:13:57.139Z,35.41
2022-09-25T11:15:08.907Z,35.48
2022-09-25T11:16:11.078Z,34.76
2022-09-25T11:17:32.094Z,34.99
2022-09-25T11:18:59.062Z,35.18
2022-09-25T11:20:22.599Z,35.91
2022-09-25T11:21:30.105Z,35.85
2022-09-25T11:22:37.921Z,36.03
2022-09-25T11:23:46.609Z,36.02
2022-09-25T11:25:01.872Z,35.84
2022-09-25T11:26:20.521Z,36.10
2022-09-25T11:27:43.174Z,36.64
2022-09-25T11:28:54.290Z,36.04
2022-09-25T11:30:17.117Z,36.51
2022-09-25T11:31:41.647Z,36.37
2022-09-25T11:33:13.734Z,35.77
2022-09-25T11:34:47.248Z,36.01
2022-09-25T11:36:15.823Z,36.24
2022-09-25T11:37:23.341Z,36.00
2022-09-25T11:38:52.605Z,35.59
2022-09-25T11:40:38.705Z,35.77
2022-09-25T11:42:00.697Z,35.53
2022-09-25T11:43:07.911Z,35.15
2022-09-25T11:44:23.451Z,35.58
2022-09-25T11:45:36.612Z,36.00
2022-09-25T11:46:50.412Z,35.75
2022-09-25T11:48:03.778Z,35.23
2022-09-25T11:49:12.488Z,35.31
2022-09-25T11:50:17.088Z,35.73
2022-09-25T11:51:44.826Z,35.42
2022-09-25T11:52:55.973Z,35.24
2022-09-25T11:54:33.901Z,35.65
2022-09-25T11:55:45.819Z,34.85
2022-09-25T11:57:12.709Z,35.07
2022-09-25T11:58:33.358Z,33.87
2022-09-25T11:59:49.393Z,34.24
2022-09-25T12:01:18.185Z,34.04
2022-09-25T12:02:44.782Z,34.21
2022-09-25T12:04:04.561Z,34.31
2022-09-25T12:05:21.281Z,34.42
2022-09-25T12:06:22.807Z,34.48
2022-09-25T12:07:30.418Z,34.14
2022-09-25T12:09:06.995Z,34.28
2022-09-25T12:10:27.017Z,33.86
2022-09-25T12:11:45.667Z,33.43
2022-09-25T12:12:57.711Z,33.94
2022-09-25T12:14:06.450Z,34.22
2022-09-25T12:15:09.165Z,33.77
2022-09-25T12:16:25.595Z,33.94
2022-09-25T12:17:51.390Z,34.27
2022-09-25T12:18:55.957Z,33.83
2022-09-25T12:20:16.368Z,33.86
2022-09-25T12:21:46.849Z,33.76
2022-09-25T12:23:29.970Z,34.32
2022-09-25T12:24:40.158Z,34.61
2022-09-25T12:26:12.573Z,34.56
2022-09-25T12:27:42.761Z,34.55
2022-09-25T12:29:28.398Z,33.67
2022-09-25T12:30:57.154Z,33.76
2022-09-25T12:32:28.529Z,33.25
2022-09-25T12:33:38.809Z,33.22
2022-09-25T12:34:58.788Z,33.08
2022-09-25T12:36:11.678Z,33.09
2022-09-25T12:37:31.947Z,33.41
2022-09-25T12:38:50.517Z,33.00
2022-09-25T12:40:03.644Z,33.29
2022-09-25T12:41:19.151Z,33.73
2022-09-25T12:42:38.668Z,33.66
2022-09-25T12:44:12.361Z,34.30
2022-09-25T12:45:27.286Z,34.20
2022-09-25T12:46:51.239Z,33.50
2022-09-25T12:48:20.963Z,33.96
2022-09-25T12:49:30.165Z,33.62
2022-09-25T12:50:39.692Z,33.76
2022-09-25T12:51:45.612Z,33.34
2022-09-25T12:52:53.114Z,33.36
2022-09-25T12:54:41.877Z,33.75
2022-09-25T12:55:53.009Z,33.93
2022-09-25T12:57:04.175Z,34.24
2022-09-25T12:58:12.492Z,34.30
2022-09-25T12:59:29.970Z,34.14
2022-09-25T13:00:35.889Z,34.01
2022-09-25T13:02:19.505Z,34.06
2022-09-25T13:03:28.384Z,34.59
2022-09-25T13:04:39.894Z,34.25
2022-09-25T13:05:56.221Z,34.56
2022-09-25T13:07:23.581Z,33.86
2022-09-25T13:08:35.324Z,33.93
2022-09-25T13:09:46.052Z,34.46
2022-09-25T13:10:59.310Z,34.33
2022-09-25T13:12:24.832Z,33.93
2022-09-25T13:13:30.300Z,34.21
2022-09-25T13:15:16.210Z,33.70
2022-09-25T13:16:17.821Z,34.25
2022-09-25T13:17:19.816Z,33.83
2022-09-25T13:18:24.448Z,34.53
2022-09-25T13:19:27.518Z,33.88
2022-09-25T13:20:29.703Z,34.17
2022-09-25T13:21:38.269Z,34.06
2022-09-25T13:22:41.878Z,34.17
2022-09-25T13:23:43.482Z,34.34
2022-09-25T13:25:02.609Z,34.52
2022-09-25T13:26:41.828Z,35.06
2022-09-25T13:27:46.283Z,34.66
2022-09-25T13:29:00.121Z,34.72
2022-09-25T13:30:01.911Z,34.68
2022-09-25T13:31:12.537Z,34.62
2022-09-25T13:32:23.595Z,34.88
2022-09-25T13:33:26.601Z,34.35
2022-09-25T13:34:28.723Z,34.62
2022-09-25T13:35:36.238Z,34.66
2022-09-25T13:36:45.844Z,34.36
2022-09-25T13:37:50.698Z,34.23
2022-09-25T13:39:32.114Z,33.83
2022-09-25T13:40:43.173Z,34.10
2022-09-25T13:42:02.699Z,34.35
2022-09-25T13:43:38.825Z,34.14
2022-09-25T13:44:43.705Z,34.29
2022-09-25T13:45:47.785Z,34.91
2022-09-25T13:46:49.534Z,34.31
2022-09-25T13:48:07.938Z,34.62
2022-09-25T13:49:34.109Z,34.96
2022-09-25T13:50:41.209Z,35.53
2022-09-25T13:51:45.216Z,35.63
2022-09-25T13:52:46.715Z,35.60
2022-09-25T13:54:03.732Z,35.33
2022-09-25T13:55:13.900Z,35.57
2022-09-25T13:56:21.494Z,35.41
2022-09-25T13:58:01.461Z,36.09
2022-09-25T13:59:13.757Z,35.79
2022-09-25T14:00:15.888Z,36.39
2022-09-25T14:01:36.276Z,36.34
2022-09-25T14:02:43.262Z,36.22
2022-09-25T14:03:48.177Z,36.81
2022-09-25T14:04:50.038Z,36.76
2022-09-25T14:05:51.615Z,37.07
2022-09-25T14:06:58.286Z,36.73
2022-09-25T14:08:22.447Z,36.59
2022-09-25T14:09:30.361Z,36.95
2022-09-25T14:10:32.412Z,36.50
2022-09-25T14:11:37.780Z,36.21
2022-09-25T14:12:45.908Z,36.62
2022-09-25T14:13:55.588Z,36.70
2022-09-25T14:15:06.171Z,36.26
2022-09-25T14:16:15.754Z,36.54
2022-09-25T14:17:17.713Z,36.51
2022-09-25T14:18:25.249Z,36.41
2022-09-25T14:19:31.359Z,36.50
2022-09-25T14:20:40.621Z,36.59
2022-09-25T14:21:44.719Z,36.41
2022-09-25T14:22:54.045Z,36.77
2022-09-25T14:23:57.772Z,36.59
2022-09-25T14:24:59.878Z,36.48
2022-09-25T14:26:07.850Z,36.62
2022-09-25T14:27:35.448Z,37.08
2022-09-25T14:28:45.247Z,37.35
2022-09-25T14:29:46.842Z,37.13
2022-09-25T14:30:54.941Z,37.48
2022-09-25T14:32:54.594Z,37.64
2022-09-25T14:34:47.898Z,37.49
2022-09-25T14:35:58.401Z,37.73
2022-09-25T14:37:15.808Z,38.09
2022-09-25T14:38:50.842Z,37.78
2022-09-25T14:40:01.464Z,38.32
2022-09-25T14:41:15.348Z,38.38
2022-09-25T14:42:53.327Z,38.36